createdAt,value
2018-04-23T00:00:41.364Z,6.73
2018-04-23T00:03:08.957Z,6.90
2018-04-23T00:05:36.650Z,7.90
2018-04-23T00:08:04.281Z,7.20
2018-04-23T00:10:31.882Z,6.77
2018-04-23T00:12:59.508Z,7.90
2018-04-23T00:15:27.868Z,6.37
2018-04-23T00:17:55.500Z,7.50
2018-04-23T00:20:23.143Z,7.67
2018-04-23T00:22:50.780Z,7.53
2018-04-23T00:25:19.128Z,6.80
2018-04-23T00:27:46.760Z,6.63
2018-04-23T00:30:14.423Z,6.73
2018-04-23T00:32:42.052Z,7.23
2018-04-23T00:35:09.638Z,7.10
2018-04-23T00:37:37.389Z,9.43
2018-04-23T00:40:04.985Z,6.93
2018-04-23T00:42:33.541Z,6.10
2018-04-23T00:45:01.170Z,8.20
2018-04-23T00:47:30.349Z,7.40
2018-04-23T00:49:57.982Z,6.53
2018-04-23T00:52:26.369Z,8.57
2018-04-23T00:54:53.961Z,8.50
2018-04-23T00:57:22.355Z,7.10
2018-04-23T00:59:49.997Z,7.73
2018-04-23T01:02:18.360Z,7.10
2018-04-23T01:04:45.969Z,7.80
2018-04-23T01:07:13.610Z,8.80
2018-04-23T01:09:42.016Z,10.23
2018-04-23T01:12:09.637Z,8.77
2018-04-23T01:14:37.990Z,8.30
2018-04-23T01:17:05.612Z,8.50
2018-04-23T01:19:33.241Z,6.90
2018-04-23T01:22:01.634Z,7.90
2018-04-23T01:24:29.262Z,7.33
2018-04-23T01:26:56.855Z,8.90
2018-04-23T01:29:24.493Z,11.77
2018-04-23T01:31:52.880Z,7.23
2018-04-23T01:34:21.280Z,9.27
2018-04-23T01:36:48.908Z,7.97
2018-04-23T01:39:16.493Z,6.53
2018-04-23T01:41:44.884Z,7.43
2018-04-23T01:44:12.505Z,8.57
2018-04-23T01:46:40.937Z,8.87
2018-04-23T01:49:08.531Z,7.33
2018-04-23T01:51:36.173Z,7.00
2018-04-23T01:54:03.765Z,6.93
2018-04-23T01:56:31.428Z,8.67
2018-04-23T01:58:59.057Z,7.63
2018-04-23T02:01:26.709Z,9.13
2018-04-23T02:03:54.341Z,7.77
2018-04-23T02:06:21.988Z,10.40
2018-04-23T02:08:50.354Z,12.70
2018-04-23T02:11:17.945Z,13.93
2018-04-23T02:13:45.565Z,6.63
2018-04-23T02:16:13.560Z,8.47
2018-04-23T02:18:41.249Z,10.97
2018-04-23T02:21:08.839Z,10.10
2018-04-23T02:23:36.420Z,9.37
2018-04-23T02:26:04.063Z,8.13
2018-04-23T02:28:31.724Z,10.30
2018-04-23T02:30:59.554Z,9.87
2018-04-23T02:33:27.186Z,8.87
2018-04-23T02:35:55.626Z,14.47
2018-04-23T02:38:23.321Z,11.03
2018-04-23T02:40:51.731Z,8.90
2018-04-23T02:43:19.365Z,9.63
2018-04-23T02:45:47.780Z,8.47
2018-04-23T02:48:15.613Z,6.63
2018-04-23T02:50:43.254Z,7.70
2018-04-23T02:53:10.893Z,8.67
2018-04-23T02:55:38.537Z,10.63
2018-04-23T02:58:06.174Z,10.47
2018-04-23T03:00:33.804Z,11.00
2018-04-23T03:03:01.441Z,7.63
2018-04-23T03:05:29.072Z,7.47
2018-04-23T03:07:56.707Z,8.63
2018-04-23T03:10:25.079Z,12.37
2018-04-23T03:12:53.486Z,10.57
2018-04-23T03:15:21.113Z,12.60
2018-04-23T03:17:48.709Z,9.00
2018-04-23T03:20:16.344Z,9.07
2018-04-23T03:22:44.708Z,8.87
2018-04-23T03:25:12.513Z,10.17
2018-04-23T03:27:40.157Z,8.63
2018-04-23T03:30:07.803Z,10.43
2018-04-23T03:32:36.177Z,12.27
2018-04-23T03:35:03.822Z,12.33
2018-04-23T03:37:31.428Z,10.27
2018-04-23T03:39:59.074Z,8.77
2018-04-23T03:42:27.516Z,9.47
2018-04-23T03:44:55.108Z,7.83
2018-04-23T03:47:23.519Z,9.10
2018-04-23T03:49:51.150Z,10.60
2018-04-23T03:52:19.560Z,15.90
2018-04-23T03:54:47.203Z,11.60
2018-04-23T03:57:15.561Z,16.03
2018-04-23T03:59:43.205Z,12.30
2018-04-23T04:02:10.798Z,9.20
2018-04-23T04:04:39.163Z,12.37
2018-04-23T04:07:06.804Z,11.67
2018-04-23T04:09:34.413Z,15.73
2018-04-23T04:12:13.970Z,11.90
2018-04-23T04:14:53.438Z,11.57
2018-04-23T04:17:36.765Z,11.60
2018-04-23T04:20:04.361Z,12.77
2018-04-23T04:22:35.513Z,10.90
2018-04-23T04:25:03.934Z,10.67
2018-04-23T04:27:31.538Z,15.10
2018-04-23T04:29:59.937Z,9.47
2018-04-23T04:32:27.529Z,9.90
2018-04-23T04:34:55.164Z,10.50
2018-04-23T04:37:22.766Z,14.83
2018-04-23T04:39:50.416Z,17.23
2018-04-23T04:42:18.014Z,15.57
2018-04-23T04:44:45.613Z,14.07
2018-04-23T04:47:13.244Z,10.73
2018-04-23T04:49:41.877Z,12.40
2018-04-23T04:52:09.515Z,16.77
2018-04-23T04:54:37.129Z,18.07
2018-04-23T04:57:04.769Z,16.03
2018-04-23T04:59:32.399Z,14.73
2018-04-23T05:02:00.058Z,15.03
2018-04-23T05:04:27.655Z,14.87
2018-04-23T05:06:55.296Z,15.67
2018-04-23T05:09:22.901Z,11.83
2018-04-23T05:11:50.565Z,17.23
2018-04-23T05:14:18.242Z,18.73
2018-04-23T05:16:46.660Z,13.57
2018-04-23T05:19:14.310Z,15.10
2018-04-23T05:21:41.910Z,15.90
2018-04-23T05:24:09.556Z,18.10
2018-04-23T05:26:37.204Z,15.87
2018-04-23T05:29:04.837Z,17.97
2018-04-23T05:31:33.201Z,17.37
2018-04-23T05:34:00.921Z,23.07
2018-04-23T05:36:28.560Z,20.77
2018-04-23T05:38:56.202Z,19.47
2018-04-23T05:41:25.273Z,16.97
2018-04-23T05:43:52.917Z,15.27
2018-04-23T05:46:21.405Z,13.83
2018-04-23T05:48:49.054Z,17.73
2018-04-23T05:51:16.661Z,17.03
2018-04-23T05:53:45.070Z,21.23
2018-04-23T05:56:12.669Z,19.87
2018-04-23T05:58:40.310Z,15.37
2018-04-23T06:01:07.905Z,20.40
2018-04-23T06:03:36.321Z,23.97
2018-04-23T06:06:03.999Z,15.13
2018-04-23T06:08:31.880Z,21.33
2018-04-23T06:10:59.533Z,23.13
2018-04-23T06:13:27.138Z,21.53
2018-04-23T06:15:55.550Z,15.13
2018-04-23T06:18:23.186Z,16.03
2018-04-23T06:20:51.597Z,14.63
2018-04-23T06:23:19.200Z,17.50
2018-04-23T06:25:48.646Z,21.03
2018-04-23T06:28:16.242Z,17.63
2018-04-23T06:30:43.886Z,26.83
2018-04-23T06:33:11.494Z,24.17
2018-04-23T06:35:39.177Z,17.60
2018-04-23T06:38:07.552Z,19.27
2018-04-23T06:40:35.954Z,16.33
2018-04-23T06:43:03.604Z,26.50
2018-04-23T06:45:31.205Z,18.37
2018-04-23T06:47:58.899Z,17.87
2018-04-23T06:50:26.501Z,18.70
2018-04-23T06:52:54.122Z,18.00
2018-04-23T06:55:21.767Z,20.27
2018-04-23T06:57:49.412Z,15.87
2018-04-23T07:00:17.010Z,19.77
2018-04-23T07:02:44.657Z,22.00
2018-04-23T07:05:12.348Z,23.93
2018-04-23T07:07:39.955Z,19.23
2018-04-23T07:10:07.588Z,18.07
2018-04-23T07:12:35.250Z,12.87
2018-04-23T07:15:02.894Z,16.77
2018-04-23T07:17:31.257Z,18.17
2018-04-23T07:19:59.713Z,15.80
2018-04-23T07:22:27.404Z,16.80
2018-04-23T07:24:55.823Z,17.17
2018-04-23T07:27:23.421Z,18.30
2018-04-23T07:29:51.065Z,14.63
2018-04-23T07:32:18.708Z,17.17
2018-04-23T07:34:46.324Z,11.57
2018-04-23T07:37:14.697Z,9.00
2018-04-23T07:39:43.109Z,11.10
2018-04-23T07:42:10.702Z,12.60
2018-04-23T07:44:38.354Z,13.33
2018-04-23T07:47:05.945Z,9.80
2018-04-23T07:49:34.345Z,9.50
2018-04-23T07:52:02.780Z,8.63
2018-04-23T07:54:30.421Z,16.23
2018-04-23T07:56:58.041Z,12.03
2018-04-23T07:59:25.685Z,11.73
2018-04-23T08:01:53.285Z,11.97
2018-04-23T08:04:21.698Z,10.77
2018-04-23T08:06:49.369Z,12.50
2018-04-23T08:09:16.977Z,16.93
2018-04-23T08:11:45.389Z,9.73
2018-04-23T08:14:12.989Z,11.23
2018-04-23T08:16:40.630Z,10.97
2018-04-23T08:19:08.280Z,9.30
2018-04-23T08:21:35.914Z,9.27
2018-04-23T08:24:03.527Z,10.40
2018-04-23T08:26:31.945Z,10.10
2018-04-23T08:29:00.352Z,9.00
2018-04-23T08:31:28.028Z,7.27
2018-04-23T08:33:55.661Z,8.90
2018-04-23T08:36:23.298Z,10.67
2018-04-23T08:38:51.657Z,8.40
2018-04-23T08:41:19.309Z,12.03
2018-04-23T08:43:46.944Z,8.77
2018-04-23T08:46:14.575Z,9.53
2018-04-23T08:48:42.182Z,11.30
2018-04-23T08:51:10.229Z,9.13
2018-04-23T08:53:37.830Z,10.67
2018-04-23T08:56:05.457Z,9.07
2018-04-23T08:58:33.093Z,11.30
2018-04-23T09:01:00.756Z,9.63
2018-04-23T09:03:28.385Z,7.93
2018-04-23T09:05:56.025Z,9.30
2018-04-23T09:08:23.622Z,8.73
2018-04-23T09:10:52.017Z,7.13
2018-04-23T09:13:19.647Z,7.17
2018-04-23T09:15:47.376Z,13.73
2018-04-23T09:18:14.974Z,8.53
2018-04-23T09:20:42.630Z,8.23
2018-04-23T09:23:10.221Z,8.30
2018-04-23T09:25:38.622Z,9.50
2018-04-23T09:28:07.645Z,9.97
2018-04-23T09:30:35.238Z,9.60
2018-04-23T09:33:03.646Z,9.67
2018-04-23T09:35:31.246Z,10.53
2018-04-23T09:37:58.873Z,8.13
2018-04-23T09:40:26.477Z,7.30
2018-04-23T09:42:54.118Z,12.20
2018-04-23T09:45:21.733Z,9.07
2018-04-23T09:47:50.177Z,9.63
2018-04-23T09:50:17.815Z,12.00
2018-04-23T09:52:46.385Z,8.30
2018-04-23T09:55:13.985Z,9.47
2018-04-23T09:57:41.625Z,13.57
2018-04-23T10:00:09.268Z,10.73
2018-04-23T10:02:36.953Z,6.27
2018-04-23T10:05:04.589Z,7.87
2018-04-23T10:07:32.188Z,9.40
2018-04-23T10:09:59.829Z,10.07
2018-04-23T10:12:27.427Z,8.53
2018-04-23T10:14:55.061Z,8.53
2018-04-23T10:17:22.707Z,13.77
2018-04-23T10:19:50.339Z,9.57
2018-04-23T10:22:17.989Z,7.73
2018-04-23T10:24:46.349Z,8.27
2018-04-23T10:27:13.985Z,12.23
2018-04-23T10:29:42.348Z,5.13
2018-04-23T10:32:09.986Z,6.30
2018-04-23T10:34:37.573Z,6.83
2018-04-23T10:37:05.200Z,5.03
2018-04-23T10:39:32.880Z,9.83
2018-04-23T10:42:00.543Z,5.73
2018-04-23T10:44:28.173Z,6.80
2018-04-23T10:46:56.541Z,7.85
2018-04-23T10:49:24.949Z,8.40
2018-04-23T10:51:52.575Z,6.20
2018-04-23T10:54:20.989Z,7.43
2018-04-23T10:56:48.630Z,6.35
2018-04-23T10:59:17.028Z,5.75
2018-04-23T11:01:44.661Z,7.10
2018-04-23T11:04:13.021Z,10.27
2018-04-23T11:06:40.665Z,6.10
2018-04-23T11:09:08.316Z,8.48
2018-04-23T11:11:35.906Z,9.23
2018-04-23T11:14:03.627Z,9.75
2018-04-23T11:16:31.234Z,7.75
2018-04-23T11:18:58.878Z,10.35
2018-04-23T11:21:26.630Z,7.00
2018-04-23T11:23:54.277Z,8.05
2018-04-23T11:26:21.877Z,4.87
2018-04-23T11:28:49.502Z,7.00
2018-04-23T11:31:17.090Z,5.55
2018-04-23T11:33:44.754Z,7.12
2018-04-23T11:36:12.346Z,5.70
2018-04-23T11:38:40.778Z,7.70
2018-04-23T11:41:08.385Z,6.57
2018-04-23T11:43:36.767Z,4.30
2018-04-23T11:46:04.418Z,6.07
2018-04-23T11:48:32.832Z,7.50
2018-04-23T11:51:00.514Z,4.47
2018-04-23T11:53:28.109Z,12.77
2018-04-23T11:55:55.753Z,7.55
2018-04-23T11:58:24.220Z,6.47
2018-04-23T12:00:52.625Z,9.25
2018-04-23T12:03:20.266Z,5.40
2018-04-23T12:05:48.627Z,4.20
2018-04-23T12:08:16.328Z,5.05
2018-04-23T12:10:44.051Z,5.45
2018-04-23T12:13:11.696Z,7.20
2018-04-23T12:15:39.353Z,9.13
2018-04-23T12:18:08.678Z,7.22
2018-04-23T12:20:36.346Z,12.02
2018-04-23T12:23:03.994Z,6.80
2018-04-23T12:25:31.932Z,11.70
2018-04-23T12:28:00.293Z,5.53
2018-04-23T12:30:27.933Z,5.93
2018-04-23T12:32:55.553Z,6.47
2018-04-23T12:35:24.682Z,5.80
2018-04-23T12:37:52.280Z,4.45
2018-04-23T12:40:20.771Z,7.72
2018-04-23T12:42:49.176Z,8.27
2018-04-23T12:45:16.805Z,6.53
2018-04-23T12:47:44.412Z,6.30
2018-04-23T12:50:12.049Z,5.72
2018-04-23T12:52:39.673Z,7.10
2018-04-23T12:55:07.362Z,5.85
2018-04-23T12:57:34.958Z,5.40
2018-04-23T13:00:03.758Z,4.78
2018-04-23T13:02:31.497Z,6.95
2018-04-23T13:04:59.098Z,5.87
2018-04-23T13:07:26.741Z,8.77
2018-04-23T13:09:54.339Z,6.00
2018-04-23T13:12:22.067Z,7.93
2018-04-23T13:14:50.517Z,6.22
2018-04-23T13:17:18.124Z,4.10
2018-04-23T13:19:46.028Z,5.47
2018-04-23T13:22:14.421Z,5.80
2018-04-23T13:24:42.073Z,5.07
2018-04-23T13:27:09.669Z,6.00
2018-04-23T13:29:37.310Z,6.80
2018-04-23T13:32:04.945Z,7.43
2018-04-23T13:34:33.310Z,5.70
2018-04-23T13:37:02.449Z,5.23
2018-04-23T13:39:30.046Z,7.70
2018-04-23T13:41:57.682Z,7.83
2018-04-23T13:44:25.330Z,8.70
2018-04-23T13:46:52.982Z,6.77
2018-04-23T13:49:20.595Z,6.63
2018-04-23T13:51:48.203Z,7.63
2018-04-23T13:54:15.838Z,12.73
2018-04-23T13:56:44.369Z,11.47
2018-04-23T13:59:12.045Z,11.37
2018-04-23T14:01:40.441Z,6.70
2018-04-23T14:04:08.077Z,7.90
2018-04-23T14:06:36.066Z,11.23
2018-04-23T14:09:03.824Z,11.40
2018-04-23T14:11:31.490Z,10.23
2018-04-23T14:13:59.093Z,9.07
2018-04-23T14:16:26.746Z,7.72
2018-04-23T14:18:55.446Z,6.90
2018-04-23T14:21:23.131Z,4.82
2018-04-23T14:23:50.985Z,5.30
2018-04-23T14:26:18.677Z,5.03
2018-04-23T14:28:46.338Z,5.78
2018-04-23T14:31:15.034Z,5.90
2018-04-23T14:36:16.697Z,8.95
2018-04-23T14:38:44.377Z,5.28
2018-04-23T14:41:12.057Z,4.82
2018-04-23T14:43:40.519Z,9.18
2018-04-23T14:46:08.182Z,7.37
2018-04-23T14:48:36.326Z,9.73
2018-04-23T14:51:05.300Z,8.18
2018-04-23T14:53:32.924Z,4.87
2018-04-23T14:56:00.618Z,6.60
2018-04-23T14:58:28.268Z,6.75
2018-04-23T15:00:55.871Z,3.42
2018-04-23T15:05:57.442Z,5.25
2018-04-23T15:08:25.181Z,4.20
2018-04-23T15:10:52.834Z,11.10
2018-04-23T15:13:20.477Z,4.25
2018-04-23T15:15:48.843Z,4.40
2018-04-23T15:18:17.272Z,6.72
2018-04-23T15:20:44.889Z,7.53
2018-04-23T15:23:13.330Z,8.98
2018-04-23T15:25:40.935Z,9.02
2018-04-23T15:28:09.342Z,7.28
2018-04-23T15:30:37.875Z,6.35
2018-04-23T15:33:05.708Z,11.88
2018-04-23T15:35:33.313Z,5.15
2018-04-23T15:38:01.892Z,6.37
2018-04-23T15:40:30.324Z,5.53
2018-04-23T15:42:57.926Z,7.43
2018-04-23T15:45:25.604Z,9.30
2018-04-23T15:47:54.034Z,9.25
2018-04-23T15:50:21.798Z,6.20
2018-04-23T15:52:49.457Z,5.82
2018-04-23T15:55:17.109Z,7.22
2018-04-23T15:57:44.729Z,8.95
2018-04-23T16:00:13.093Z,5.43
2018-04-23T16:02:41.583Z,8.60
2018-04-23T16:05:10.021Z,10.47
2018-04-23T16:07:37.704Z,12.60
2018-04-23T16:10:05.374Z,9.47
2018-04-23T16:12:32.973Z,8.37
2018-04-23T16:15:00.628Z,6.70
2018-04-23T16:17:29.046Z,5.70
2018-04-23T16:19:56.680Z,8.80
2018-04-23T16:22:24.402Z,7.67
2018-04-23T16:24:52.856Z,12.27
2018-04-23T16:27:20.469Z,6.67
2018-04-23T16:29:48.890Z,9.30
2018-04-23T16:32:16.542Z,7.43
2018-04-23T16:34:44.226Z,5.83
2018-04-23T16:37:11.865Z,8.33
2018-04-23T16:39:39.510Z,7.10
2018-04-23T16:42:07.126Z,8.73
2018-04-23T16:44:39.415Z,7.03
2018-04-23T16:47:02.529Z,7.23
2018-04-23T16:49:31.102Z,5.13
2018-04-23T16:51:58.793Z,9.17
2018-04-23T16:54:26.452Z,7.43
2018-04-23T16:56:54.297Z,7.00
2018-04-23T16:59:22.003Z,10.43
2018-04-23T17:01:50.518Z,12.77
2018-04-23T17:04:18.194Z,7.70
2018-04-23T17:06:45.826Z,8.30
2018-04-23T17:09:13.470Z,7.00
2018-04-23T17:11:41.847Z,8.53
2018-04-23T17:14:10.332Z,7.20
2018-04-23T17:16:39.586Z,8.20
2018-04-23T17:19:07.272Z,8.10
2018-04-23T17:21:34.929Z,10.63
2018-04-23T17:24:03.366Z,7.97
2018-04-23T17:26:31.887Z,7.30
2018-04-23T17:28:59.512Z,9.27
2018-04-23T17:31:27.101Z,9.13
2018-04-23T17:33:54.732Z,11.63
2018-04-23T17:36:22.365Z,7.27
2018-04-23T17:38:50.759Z,7.33
2018-04-23T17:41:18.425Z,7.73
2018-04-23T17:43:46.017Z,11.53
2018-04-23T17:46:13.700Z,8.87
2018-04-23T17:48:41.309Z,11.27
2018-04-23T17:51:08.969Z,7.80
2018-04-23T17:53:36.634Z,10.30
2018-04-23T17:56:04.426Z,9.33
2018-04-23T17:58:32.595Z,8.20
2018-04-23T18:01:00.702Z,7.23
2018-04-23T18:03:28.298Z,7.80
2018-04-23T18:05:56.029Z,6.23
2018-04-23T18:08:23.680Z,10.00
2018-04-23T18:10:51.681Z,9.83
2018-04-23T18:13:20.066Z,8.93
2018-04-23T18:15:48.493Z,9.37
2018-04-23T18:18:16.333Z,10.03
2018-04-23T18:20:44.110Z,10.00
2018-04-23T18:23:11.809Z,7.27
2018-04-23T18:25:39.506Z,5.67
2018-04-23T18:28:07.157Z,5.50
2018-04-23T18:30:35.842Z,4.57
2018-04-23T18:33:03.570Z,6.60
2018-04-23T18:35:31.985Z,4.17
2018-04-23T18:38:00.512Z,4.10
2018-04-23T18:40:28.110Z,3.77
2018-04-23T18:42:55.740Z,7.23
2018-04-23T18:45:23.334Z,5.40
2018-04-23T18:47:51.009Z,7.57
2018-04-23T18:50:18.643Z,6.50
2018-04-23T18:52:47.536Z,3.97
2018-04-23T18:55:15.152Z,10.97
2018-04-23T18:57:42.788Z,3.67
2018-04-23T19:00:12.159Z,6.13
2018-04-23T19:02:39.830Z,4.90
2018-04-23T19:05:07.558Z,5.60
2018-04-23T19:07:35.662Z,3.50
2018-04-23T19:10:03.515Z,4.23
2018-04-23T19:12:31.219Z,5.13
2018-04-23T19:15:01.179Z,5.03
2018-04-23T19:17:28.824Z,5.30
2018-04-23T19:19:56.725Z,3.40
2018-04-23T19:22:24.369Z,4.20
2018-04-23T19:24:52.021Z,5.23
2018-04-23T19:27:19.831Z,4.20
2018-04-23T19:29:48.294Z,4.67
2018-04-23T19:32:15.897Z,6.50
2018-04-23T19:34:44.337Z,9.13
2018-04-23T19:37:11.961Z,5.97
2018-04-23T19:39:39.625Z,6.97
2018-04-23T19:42:07.216Z,5.53
2018-04-23T19:44:34.827Z,7.07
2018-04-23T19:47:02.477Z,14.07
2018-04-23T19:49:30.081Z,7.03
2018-04-23T19:51:57.844Z,6.73
2018-04-23T19:54:25.489Z,10.10
2018-04-23T19:56:53.138Z,8.50
2018-04-23T19:59:21.033Z,10.17
2018-04-23T20:01:48.701Z,6.97
2018-04-23T20:04:16.342Z,5.77
2018-04-23T20:06:44.052Z,6.63
2018-04-23T20:09:11.608Z,4.53
2018-04-23T20:11:39.237Z,7.20
2018-04-23T20:14:06.841Z,6.97
2018-04-23T20:16:34.509Z,5.43
2018-04-23T20:19:02.881Z,7.77
2018-04-23T20:21:31.474Z,5.80
2018-04-23T20:23:59.917Z,5.13
2018-04-23T20:26:27.602Z,7.40
2018-04-23T20:28:55.290Z,6.80
2018-04-23T20:31:22.899Z,10.70
2018-04-23T20:33:50.557Z,9.13
2018-04-23T20:36:18.150Z,8.20
2018-04-23T20:38:46.516Z,10.00
2018-04-23T20:41:14.154Z,9.70
2018-04-23T20:43:41.737Z,7.20
2018-04-23T20:46:09.368Z,8.37
2018-04-23T20:48:36.949Z,7.53
2018-04-23T20:51:04.565Z,9.37
2018-04-23T20:53:32.221Z,6.27
2018-04-23T20:55:59.813Z,8.97
2018-04-23T20:58:27.412Z,7.10
2018-04-23T21:00:55.090Z,6.37
2018-04-23T21:03:23.452Z,7.20
2018-04-23T21:05:51.085Z,6.70
2018-04-23T21:08:18.726Z,10.33
2018-04-23T21:10:46.327Z,8.40
2018-04-23T21:13:13.968Z,7.97
2018-04-23T21:15:41.559Z,10.10
2018-04-23T21:18:09.177Z,6.97
2018-04-23T21:20:36.757Z,7.70
2018-04-23T21:23:04.385Z,5.47
2018-04-23T21:25:32.023Z,8.77
2018-04-23T21:27:59.659Z,7.03
2018-04-23T21:30:27.309Z,6.07
2018-04-23T21:32:54.896Z,5.10
2018-04-23T21:35:23.288Z,4.47
2018-04-23T21:37:50.908Z,6.80
2018-04-23T21:40:18.558Z,4.67
2018-04-23T21:42:46.148Z,5.37
2018-04-23T21:45:13.845Z,6.03
2018-04-23T21:47:41.432Z,4.40
2018-04-23T21:50:09.817Z,4.23
2018-04-23T21:52:38.272Z,4.33
2018-04-23T21:55:05.905Z,4.67
2018-04-23T21:57:34.284Z,5.63
2018-04-23T22:00:02.640Z,4.27
2018-04-23T22:02:30.283Z,9.17
2018-04-23T22:04:58.649Z,5.30
2018-04-23T22:07:26.256Z,5.77
2018-04-23T22:09:54.648Z,5.27
2018-04-23T22:12:23.136Z,4.50
2018-04-23T22:14:54.001Z,6.03
2018-04-23T22:17:21.629Z,5.83
2018-04-23T22:19:50.620Z,4.93
2018-04-23T22:22:18.244Z,4.90
2018-04-23T22:24:45.878Z,7.50
2018-04-23T22:27:13.501Z,5.77
2018-04-23T22:29:41.893Z,6.43
2018-04-23T22:32:09.545Z,6.30
2018-04-23T22:34:37.247Z,7.07
2018-04-23T22:37:06.812Z,8.17
2018-04-23T22:39:34.399Z,6.17
2018-04-23T22:42:02.024Z,8.93
2018-04-23T22:44:30.465Z,6.47
2018-04-23T22:46:58.036Z,8.07
2018-04-23T22:49:25.666Z,6.33
2018-04-23T22:51:53.281Z,6.50
2018-04-23T22:54:21.680Z,6.17
2018-04-23T22:56:49.269Z,8.20
2018-04-23T22:59:16.852Z,8.33
2018-04-23T23:01:44.487Z,7.30
2018-04-23T23:04:12.071Z,6.93
2018-04-23T23:06:39.692Z,6.27
2018-04-23T23:09:07.336Z,8.07
2018-04-23T23:11:34.960Z,7.27
2018-04-23T23:14:02.586Z,8.77
2018-04-23T23:16:30.179Z,5.90
2018-04-23T23:18:57.917Z,5.77
2018-04-23T23:21:25.584Z,7.50
2018-04-23T23:23:53.925Z,9.53
2018-04-23T23:26:21.511Z,6.00
2018-04-23T23:28:49.180Z,7.27
2018-04-23T23:31:16.768Z,6.50
2018-04-23T23:33:45.205Z,7.23
2018-04-23T23:36:13.005Z,6.77
2018-04-23T23:38:40.640Z,6.73
2018-04-23T23:41:08.225Z,7.43
2018-04-23T23:43:35.849Z,8.10
2018-04-23T23:46:03.432Z,6.03
2018-04-23T23:48:31.188Z,5.63
2018-04-23T23:50:58.818Z,7.20
2018-04-23T23:53:26.473Z,5.40
2018-04-23T23:55:54.061Z,6.53
2018-04-23T23:58:21.681Z,7.83
